createdAt,value
2022-10-02T00:02:37.440Z,84.32
2022-10-02T00:05:12.780Z,84.30
2022-10-02T00:07:43.257Z,84.52
2022-10-02T00:10:32.589Z,84.80
2022-10-02T00:13:12.315Z,84.72
2022-10-02T00:15:42.451Z,84.39
2022-10-02T00:18:16.597Z,84.79
2022-10-02T00:20:56.495Z,84.70
2022-10-02T00:23:33.683Z,84.55
2022-10-02T00:26:09.427Z,84.63
2022-10-02T00:28:52.267Z,84.81
2022-10-02T00:32:01.870Z,84.76
2022-10-02T00:35:15.234Z,85.12
2022-10-02T00:37:54.743Z,85.16
2022-10-02T00:40:43.950Z,84.98
2022-10-02T00:43:19.695Z,85.07
2022-10-02T00:46:08.899Z,85.26
2022-10-02T00:48:42.363Z,85.23
2022-10-02T00:51:31.808Z,85.32
2022-10-02T00:54:09.624Z,85.51
2022-10-02T00:56:52.628Z,85.69
2022-10-02T00:59:35.241Z,85.52
2022-10-02T01:02:12.680Z,85.32
2022-10-02T01:04:41.451Z,85.69
2022-10-02T01:07:12.863Z,86.06
2022-10-02T01:09:42.060Z,86.17
2022-10-02T01:12:10.740Z,86.03
2022-10-02T01:14:40.259Z,85.74
2022-10-02T01:17:23.884Z,86.45
2022-10-02T01:19:51.851Z,86.25
2022-10-02T01:22:39.078Z,86.56
2022-10-02T01:25:07.866Z,86.23
2022-10-02T01:27:39.307Z,86.36
2022-10-02T01:30:11.519Z,86.26
2022-10-02T01:33:00.648Z,85.97
2022-10-02T01:35:33.703Z,86.52
2022-10-02T01:38:06.204Z,86.45
2022-10-02T01:40:36.183Z,86.34
2022-10-02T01:43:19.029Z,86.32
2022-10-02T01:45:59.011Z,86.38
2022-10-02T01:48:39.977Z,86.33
2022-10-02T01:51:46.487Z,86.01
2022-10-02T01:54:14.085Z,86.50
2022-10-02T01:56:49.737Z,86.23
2022-10-02T01:59:40.741Z,86.32
2022-10-02T02:02:30.022Z,86.43
2022-10-02T02:05:06.889Z,86.60
2022-10-02T02:07:53.211Z,86.66
2022-10-02T02:10:27.420Z,86.87
2022-10-02T02:13:05.504Z,86.92
2022-10-02T02:15:55.057Z,86.88
2022-10-02T02:18:30.054Z,86.50
2022-10-02T02:21:05.964Z,86.85
2022-10-02T02:23:37.208Z,86.49
2022-10-02T02:26:09.705Z,86.60
2022-10-02T02:28:40.928Z,86.61
2022-10-02T02:31:13.249Z,86.89
2022-10-02T02:33:50.580Z,86.78
2022-10-02T02:36:23.364Z,86.86
2022-10-02T02:38:56.680Z,86.72
2022-10-02T02:41:28.516Z,87.00
2022-10-02T02:44:02.955Z,86.49
2022-10-02T02:46:59.581Z,86.92
2022-10-02T02:49:32.157Z,86.79
2022-10-02T02:52:03.908Z,86.88
2022-10-02T02:54:44.679Z,86.62
2022-10-02T02:57:15.588Z,86.82
2022-10-02T02:59:46.739Z,86.78
2022-10-02T03:02:14.691Z,86.87
2022-10-02T03:04:42.494Z,86.68
2022-10-02T03:07:15.479Z,86.42
2022-10-02T03:09:54.295Z,86.85
2022-10-02T03:12:53.495Z,87.00
2022-10-02T03:15:28.812Z,86.93
2022-10-02T03:18:31.071Z,86.84
2022-10-02T03:21:04.504Z,86.74
2022-10-02T03:24:06.352Z,86.83
2022-10-02T03:26:47.748Z,86.93
2022-10-02T03:29:31.815Z,86.86
2022-10-02T03:32:00.804Z,86.84
2022-10-02T03:34:29.264Z,86.87
2022-10-02T03:36:57.128Z,86.79
2022-10-02T03:39:26.113Z,87.05
2022-10-02T03:41:54.673Z,87.10
2022-10-02T03:44:22.346Z,86.96
2022-10-02T03:46:50.118Z,87.44
2022-10-02T03:49:17.755Z,86.98
2022-10-02T03:51:45.453Z,87.24
2022-10-02T03:54:17.833Z,87.43
2022-10-02T03:56:57.258Z,87.35
2022-10-02T03:59:46.943Z,87.41
2022-10-02T04:02:40.298Z,87.73
2022-10-02T04:05:27.928Z,87.56
2022-10-02T04:08:00.607Z,87.56
2022-10-02T04:10:31.024Z,87.97
2022-10-02T04:13:12.078Z,87.85
2022-10-02T04:16:03.519Z,87.76
2022-10-02T04:18:51.475Z,87.64
2022-10-02T04:21:56.148Z,87.77
2022-10-02T04:24:50.388Z,87.67
2022-10-02T04:27:31.371Z,87.78
2022-10-02T04:30:04.134Z,87.95
2022-10-02T04:32:34.587Z,87.85
2022-10-02T04:35:12.738Z,88.03
2022-10-02T04:37:52.299Z,88.07
2022-10-02T04:40:53.031Z,88.22
2022-10-02T04:43:57.764Z,88.33
2022-10-02T04:47:04.648Z,88.35
2022-10-02T04:49:41.159Z,88.13
2022-10-02T04:52:45.351Z,88.47
2022-10-02T04:55:30.175Z,88.71
2022-10-02T04:58:22.735Z,88.66
2022-10-02T05:01:01.875Z,88.90
2022-10-02T05:04:20.886Z,88.59
2022-10-02T05:07:00.469Z,88.81
2022-10-02T05:09:34.860Z,88.49
2022-10-02T05:12:11.460Z,88.69
2022-10-02T05:14:54.279Z,89.09
2022-10-02T05:17:40.337Z,88.92
2022-10-02T05:20:45.557Z,88.71
2022-10-02T05:23:25.249Z,88.95
2022-10-02T05:26:14.329Z,89.07
2022-10-02T05:29:03.844Z,89.13
2022-10-02T05:31:56.060Z,89.07
2022-10-02T05:34:38.325Z,89.02
2022-10-02T05:37:19.717Z,88.74
2022-10-02T05:40:00.181Z,89.20
2022-10-02T05:42:39.048Z,89.51
2022-10-02T05:45:37.248Z,89.63
2022-10-02T05:48:26.384Z,89.31
2022-10-02T05:51:02.363Z,89.48
2022-10-02T05:54:01.829Z,90.01
2022-10-02T05:56:32.935Z,89.72
2022-10-02T05:59:33.056Z,89.86
2022-10-02T06:02:20.529Z,90.02
2022-10-02T06:04:57.565Z,89.91
2022-10-02T06:07:28.208Z,90.11
2022-10-02T06:10:03.649Z,90.16
2022-10-02T06:12:35.499Z,90.09
2022-10-02T06:15:10.531Z,90.12
2022-10-02T06:17:45.773Z,90.17
2022-10-02T06:20:48.842Z,90.61
2022-10-02T06:23:24.534Z,90.22
2022-10-02T06:26:00.064Z,90.67
2022-10-02T06:28:27.888Z,90.38
2022-10-02T06:31:05.846Z,90.55
2022-10-02T06:33:33.606Z,90.48
2022-10-02T06:36:22.824Z,90.16
2022-10-02T06:38:53.268Z,90.47
2022-10-02T06:41:47.463Z,90.51
2022-10-02T06:44:48.294Z,90.56
2022-10-02T06:47:37.477Z,90.46
2022-10-02T06:50:30.533Z,90.15
2022-10-02T06:53:07.173Z,90.19
2022-10-02T06:55:45.609Z,90.32
2022-10-02T06:58:50.785Z,90.36
2022-10-02T07:01:27.112Z,90.55
2022-10-02T07:04:33.270Z,90.72
2022-10-02T07:07:06.278Z,90.47
2022-10-02T07:10:29.517Z,90.55
2022-10-02T07:13:34.317Z,90.40
2022-10-02T07:16:29.272Z,90.30
2022-10-02T07:19:15.446Z,90.22
2022-10-02T07:22:01.132Z,90.02
2022-10-02T07:24:53.469Z,90.03
2022-10-02T07:27:29.342Z,90.02
2022-10-02T07:30:05.178Z,89.91
2022-10-02T07:32:49.985Z,89.82
2022-10-02T07:35:42.583Z,89.66
2022-10-02T07:38:10.245Z,89.59
2022-10-02T07:40:44.254Z,89.54
2022-10-02T07:43:18.944Z,89.43
2022-10-02T07:46:17.250Z,89.38
2022-10-02T07:49:13.181Z,89.57
2022-10-02T07:51:53.949Z,89.31
2022-10-02T07:54:43.010Z,89.11
2022-10-02T07:57:44.580Z,89.20
2022-10-02T08:00:14.481Z,88.93
2022-10-02T08:02:48.385Z,88.53
2022-10-02T08:05:26.929Z,88.62
2022-10-02T08:07:59.995Z,88.49
2022-10-02T08:10:35.735Z,88.41
2022-10-02T08:13:22.243Z,88.24
2022-10-02T08:15:55.046Z,88.42
2022-10-02T08:19:07.263Z,88.42
2022-10-02T08:21:43.015Z,88.20
2022-10-02T08:24:22.543Z,88.15
2022-10-02T08:26:57.961Z,88.21
2022-10-02T08:30:06.536Z,87.95
2022-10-02T08:32:36.732Z,87.39
2022-10-02T08:35:19.892Z,87.23
2022-10-02T08:38:38.911Z,87.27
2022-10-02T08:41:31.671Z,86.86
2022-10-02T08:44:21.526Z,86.51
2022-10-02T08:47:03.219Z,86.74
2022-10-02T08:49:55.526Z,86.45
2022-10-02T08:52:41.250Z,85.64
2022-10-02T08:55:30.671Z,85.34
2022-10-02T08:58:38.461Z,83.64
2022-10-02T09:01:23.219Z,83.97
2022-10-02T09:03:59.867Z,84.43
2022-10-02T09:07:00.340Z,84.36
2022-10-02T09:09:43.405Z,83.28
2022-10-02T09:12:49.269Z,83.71
2022-10-02T09:15:23.254Z,82.30
2022-10-02T09:18:20.364Z,82.88
2022-10-02T09:21:13.988Z,82.86
2022-10-02T09:24:36.331Z,81.98
2022-10-02T09:27:42.281Z,81.76
2022-10-02T09:30:50.952Z,82.14
2022-10-02T09:33:19.426Z,81.94
2022-10-02T09:36:24.908Z,81.18
2022-10-02T09:38:59.041Z,80.74
2022-10-02T09:42:01.639Z,80.17
2022-10-02T09:44:43.835Z,79.84
2022-10-02T09:47:49.613Z,80.14
2022-10-02T09:50:55.569Z,80.37
2022-10-02T09:53:54.219Z,80.62
2022-10-02T09:56:53.619Z,80.87
2022-10-02T10:00:08.790Z,80.31
2022-10-02T10:02:39.029Z,79.91
2022-10-02T10:05:40.468Z,80.11
2022-10-02T10:08:23.388Z,79.68
2022-10-02T10:10:50.947Z,79.81
2022-10-02T10:13:44.926Z,79.64
2022-10-02T10:16:30.881Z,79.53
2022-10-02T10:19:07.532Z,79.30
2022-10-02T10:21:53.968Z,79.07
2022-10-02T10:24:54.936Z,79.51
2022-10-02T10:28:23.398Z,79.84
2022-10-02T10:31:13.017Z,80.27
2022-10-02T10:33:49.457Z,80.50
2022-10-02T10:36:40.367Z,80.51
2022-10-02T10:39:14.063Z,80.71
2022-10-02T10:42:19.934Z,80.99
2022-10-02T10:45:06.127Z,80.81
2022-10-02T10:47:40.030Z,80.91
2022-10-02T10:50:38.509Z,80.96
2022-10-02T10:53:15.277Z,81.00
2022-10-02T10:56:08.335Z,80.87
2022-10-02T10:59:00.305Z,80.98
2022-10-02T11:01:58.799Z,80.74
2022-10-02T11:04:43.820Z,80.12
2022-10-02T11:07:20.435Z,80.08
2022-10-02T11:10:07.857Z,79.73
2022-10-02T11:13:18.482Z,79.20
2022-10-02T11:16:06.720Z,78.93
2022-10-02T11:19:03.155Z,79.15
2022-10-02T11:21:40.156Z,78.74
2022-10-02T11:24:36.572Z,79.12
2022-10-02T11:27:49.100Z,78.70
2022-10-02T11:30:44.387Z,77.25
2022-10-02T11:33:38.482Z,77.52
2022-10-02T11:36:30.200Z,77.51
2022-10-02T11:39:36.363Z,77.32
2022-10-02T11:42:21.842Z,76.96
2022-10-02T11:45:09.256Z,77.08
2022-10-02T11:48:24.527Z,77.07
2022-10-02T11:50:52.197Z,77.57
2022-10-02T11:53:46.022Z,77.58
2022-10-02T11:56:26.005Z,77.51
2022-10-02T11:59:23.295Z,77.83
2022-10-02T12:02:06.973Z,77.93
2022-10-02T12:05:06.118Z,78.07
2022-10-02T12:07:50.291Z,78.05
2022-10-02T12:10:33.599Z,78.13
2022-10-02T12:13:16.539Z,77.85
2022-10-02T12:16:38.121Z,77.80
2022-10-02T12:20:04.158Z,77.82
2022-10-02T12:23:15.751Z,77.19
2022-10-02T12:26:12.922Z,77.36
2022-10-02T12:29:05.855Z,77.02
2022-10-02T12:32:08.205Z,76.74
2022-10-02T12:34:50.189Z,75.54
2022-10-02T12:37:42.829Z,74.83
2022-10-02T12:40:33.580Z,74.38
2022-10-02T12:43:46.361Z,75.06
2022-10-02T12:46:22.656Z,75.32
2022-10-02T12:49:00.341Z,75.26
2022-10-02T12:51:55.149Z,75.69
2022-10-02T12:54:53.861Z,75.89
2022-10-02T12:57:53.543Z,76.07
2022-10-02T13:00:25.408Z,76.18
2022-10-02T13:03:11.766Z,76.62
2022-10-02T13:06:10.908Z,76.48
2022-10-02T13:08:52.407Z,76.00
2022-10-02T13:11:38.135Z,76.04
2022-10-02T13:14:27.809Z,76.31
2022-10-02T13:17:23.896Z,75.98
2022-10-02T13:20:28.199Z,76.34
2022-10-02T13:23:20.592Z,75.59
2022-10-02T13:26:13.928Z,75.63
2022-10-02T13:29:04.666Z,75.46
2022-10-02T13:31:54.202Z,75.49
2022-10-02T13:34:38.478Z,74.89
2022-10-02T13:37:55.571Z,74.32
2022-10-02T13:40:31.816Z,74.24
2022-10-02T13:43:37.047Z,73.91
2022-10-02T13:46:33.586Z,73.90
2022-10-02T13:49:40.190Z,73.08
2022-10-02T13:52:28.094Z,73.59
2022-10-02T13:55:26.319Z,73.57
2022-10-02T13:58:28.108Z,72.87
2022-10-02T14:01:26.753Z,73.11
2022-10-02T14:04:00.323Z,73.07
2022-10-02T14:06:44.573Z,73.20
2022-10-02T14:09:26.007Z,73.82
2022-10-02T14:12:09.199Z,73.71
2022-10-02T14:15:08.192Z,74.01
2022-10-02T14:17:48.545Z,73.64
2022-10-02T14:20:33.594Z,73.74
2022-10-02T14:23:18.690Z,74.00
2022-10-02T14:26:13.048Z,74.01
2022-10-02T14:28:59.407Z,74.01
2022-10-02T14:31:45.856Z,74.05
2022-10-02T14:34:49.691Z,74.21
2022-10-02T14:37:20.363Z,74.34
2022-10-02T14:39:49.884Z,74.32
2022-10-02T14:42:56.580Z,74.38
2022-10-02T14:45:42.375Z,74.26
2022-10-02T14:48:10.742Z,74.47
2022-10-02T14:50:58.789Z,74.83
2022-10-02T14:53:47.774Z,74.65
2022-10-02T14:56:39.447Z,74.66
2022-10-02T14:59:27.500Z,74.63
2022-10-02T15:02:22.409Z,74.57
2022-10-02T15:05:07.171Z,74.59
2022-10-02T15:07:38.834Z,74.52
2022-10-02T15:10:16.437Z,74.43
2022-10-02T15:13:05.927Z,74.41
2022-10-02T15:15:46.989Z,74.46
2022-10-02T15:18:55.178Z,74.55
2022-10-02T15:21:38.403Z,74.16
2022-10-02T15:24:46.298Z,74.37
2022-10-02T15:27:23.579Z,74.73
2022-10-02T15:30:09.780Z,74.92
2022-10-02T15:33:15.017Z,74.96
2022-10-02T15:36:03.883Z,74.81
2022-10-02T15:38:37.370Z,74.71
2022-10-02T15:41:26.960Z,74.60
2022-10-02T15:44:08.557Z,74.96
2022-10-02T15:46:45.718Z,75.03
2022-10-02T15:49:45.051Z,74.99
2022-10-02T15:52:27.942Z,75.03
2022-10-02T15:55:19.578Z,75.19
2022-10-02T15:58:26.338Z,75.18
2022-10-02T16:01:01.146Z,75.41
2022-10-02T16:03:49.173Z,75.35
2022-10-02T16:06:23.013Z,75.30
2022-10-02T16:09:31.955Z,75.43
2022-10-02T16:12:55.294Z,75.62
2022-10-02T16:15:35.566Z,75.82
2022-10-02T16:18:33.840Z,75.88
2022-10-02T16:21:13.790Z,75.89
2022-10-02T16:24:23.101Z,75.97
2022-10-02T16:27:11.265Z,76.21
2022-10-02T16:29:59.899Z,76.34
2022-10-02T16:32:43.287Z,76.25
2022-10-02T16:35:24.422Z,76.50
2022-10-02T16:38:15.331Z,76.47
2022-10-02T16:41:17.810Z,76.69
2022-10-02T16:43:59.102Z,76.84
2022-10-02T16:47:04.342Z,76.84
2022-10-02T16:50:09.580Z,77.05
2022-10-02T16:52:53.986Z,77.30
2022-10-02T16:55:33.806Z,77.02
2022-10-02T16:58:27.637Z,76.93
2022-10-02T17:01:03.810Z,77.42
2022-10-02T17:04:05.963Z,77.26
2022-10-02T17:06:45.404Z,77.19
2022-10-02T17:09:22.961Z,77.18
2022-10-02T17:12:20.331Z,77.40
2022-10-02T17:15:03.379Z,77.53
2022-10-02T17:17:56.298Z,77.34
2022-10-02T17:20:29.624Z,77.51
2022-10-02T17:23:12.448Z,77.51
2022-10-02T17:25:48.377Z,77.51
2022-10-02T17:28:46.236Z,77.62
2022-10-02T17:31:22.893Z,77.71
2022-10-02T17:33:59.328Z,77.88
2022-10-02T17:36:45.108Z,77.45
2022-10-02T17:39:32.524Z,78.14
2022-10-02T17:42:30.435Z,78.22
2022-10-02T17:45:35.885Z,78.18
2022-10-02T17:48:26.732Z,78.34
2022-10-02T17:51:23.319Z,78.43
2022-10-02T17:54:36.090Z,78.45
2022-10-02T17:57:16.531Z,78.26
2022-10-02T18:00:07.387Z,78.69
2022-10-02T18:02:53.097Z,78.87
2022-10-02T18:05:26.433Z,78.85
2022-10-02T18:08:06.813Z,78.79
2022-10-02T18:10:46.630Z,78.98
2022-10-02T18:13:31.733Z,79.00
2022-10-02T18:16:18.796Z,79.30
2022-10-02T18:19:24.065Z,79.22
2022-10-02T18:22:29.511Z,79.43
2022-10-02T18:25:03.121Z,79.19
2022-10-02T18:27:37.739Z,79.02
2022-10-02T18:30:08.945Z,79.35
2022-10-02T18:33:01.716Z,79.44
2022-10-02T18:35:47.285Z,79.69
2022-10-02T18:38:30.313Z,79.64
2022-10-02T18:41:27.272Z,79.46
2022-10-02T18:44:03.182Z,79.82
2022-10-02T18:46:49.462Z,79.57
2022-10-02T18:49:17.035Z,80.09
2022-10-02T18:52:03.043Z,80.32
2022-10-02T18:54:48.787Z,80.23
2022-10-02T18:57:55.899Z,80.20
2022-10-02T19:00:30.574Z,80.20
2022-10-02T19:03:16.590Z,80.21
2022-10-02T19:05:58.980Z,80.18
2022-10-02T19:08:50.989Z,80.25
2022-10-02T19:11:19.147Z,80.37
2022-10-02T19:13:49.047Z,80.44
2022-10-02T19:16:24.456Z,80.41
2022-10-02T19:19:24.196Z,80.82
2022-10-02T19:21:59.142Z,80.64
2022-10-02T19:24:33.144Z,80.55
2022-10-02T19:27:08.242Z,80.43
2022-10-02T19:29:42.939Z,80.71
2022-10-02T19:32:16.624Z,80.84
2022-10-02T19:34:48.898Z,80.83
2022-10-02T19:37:20.030Z,80.91
2022-10-02T19:39:56.063Z,80.86
2022-10-02T19:42:45.086Z,81.20
2022-10-02T19:45:34.448Z,80.96
2022-10-02T19:48:06.064Z,81.50
2022-10-02T19:50:41.195Z,81.81
2022-10-02T19:53:36.344Z,81.46
2022-10-02T19:56:17.168Z,81.54
2022-10-02T19:58:50.671Z,81.60
2022-10-02T20:01:23.392Z,81.65
2022-10-02T20:04:03.651Z,81.68
2022-10-02T20:06:37.792Z,81.62
2022-10-02T20:09:20.103Z,81.53
2022-10-02T20:12:04.349Z,81.40
2022-10-02T20:14:48.393Z,81.61
2022-10-02T20:17:17.897Z,81.76
2022-10-02T20:20:02.862Z,81.70
2022-10-02T20:22:39.172Z,81.86
2022-10-02T20:25:29.136Z,81.97
2022-10-02T20:28:04.099Z,81.97
2022-10-02T20:30:41.741Z,82.31
2022-10-02T20:33:26.399Z,82.25
2022-10-02T20:36:14.109Z,82.26
2022-10-02T20:38:47.495Z,82.39
2022-10-02T20:41:35.320Z,82.40
2022-10-02T20:44:04.623Z,82.32
2022-10-02T20:46:47.882Z,82.29
2022-10-02T20:49:44.067Z,82.30
2022-10-02T20:52:14.484Z,82.67
2022-10-02T20:55:07.025Z,82.61
2022-10-02T20:58:00.162Z,82.62
2022-10-02T21:00:43.155Z,82.82
2022-10-02T21:03:25.255Z,82.65
2022-10-02T21:06:26.476Z,82.71
2022-10-02T21:09:23.656Z,82.93
2022-10-02T21:12:10.769Z,82.83
2022-10-02T21:14:54.718Z,82.87
2022-10-02T21:17:54.937Z,82.58
2022-10-02T21:20:55.679Z,82.95
2022-10-02T21:23:32.348Z,82.84
2022-10-02T21:26:05.845Z,83.02
2022-10-02T21:29:07.994Z,83.01
2022-10-02T21:32:07.832Z,82.93
2022-10-02T21:34:53.843Z,82.92
2022-10-02T21:37:22.413Z,82.83
2022-10-02T21:40:19.980Z,82.78
2022-10-02T21:43:37.801Z,82.87
2022-10-02T21:46:42.225Z,83.06
2022-10-02T21:49:15.824Z,82.93
2022-10-02T21:52:21.065Z,82.87
2022-10-02T21:54:58.123Z,82.60
2022-10-02T21:57:51.850Z,83.03
2022-10-02T22:00:26.685Z,82.95
2022-10-02T22:03:10.300Z,83.09
2022-10-02T22:06:02.489Z,83.08
2022-10-02T22:08:55.065Z,83.33
2022-10-02T22:11:34.733Z,82.95
2022-10-02T22:14:27.363Z,83.25
2022-10-02T22:17:04.941Z,83.13
2022-10-02T22:19:58.799Z,83.06
2022-10-02T22:22:41.658Z,83.23
2022-10-02T22:25:28.548Z,83.36
2022-10-02T22:28:02.432Z,83.53
2022-10-02T22:30:37.690Z,83.50
2022-10-02T22:33:15.384Z,83.28
2022-10-02T22:36:27.897Z,83.54
2022-10-02T22:39:28.532Z,83.68
2022-10-02T22:42:11.045Z,83.62
2022-10-02T22:45:04.867Z,83.63
2022-10-02T22:47:39.949Z,83.76
2022-10-02T22:50:24.829Z,84.08
2022-10-02T22:53:14.797Z,84.00
2022-10-02T22:55:53.928Z,83.88
2022-10-02T22:58:42.071Z,84.40
2022-10-02T23:01:46.364Z,84.26
2022-10-02T23:04:37.721Z,84.41
2022-10-02T23:07:20.008Z,84.49
2022-10-02T23:10:02.619Z,84.31
2022-10-02T23:12:51.068Z,83.94
2022-10-02T23:15:27.436Z,84.22
2022-10-02T23:17:59.596Z,84.53
2022-10-02T23:20:36.618Z,84.30
2022-10-02T23:23:17.984Z,84.41
2022-10-02T23:26:06.822Z,84.38
2022-10-02T23:28:47.894Z,84.80
2022-10-02T23:31:30.452Z,84.86
2022-10-02T23:34:19.041Z,84.96
2022-10-02T23:37:07.194Z,84.85
2022-10-02T23:39:56.869Z,85.02
2022-10-02T23:42:41.336Z,85.33
2022-10-02T23:45:21.292Z,85.51
2022-10-02T23:47:58.457Z,85.34
2022-10-02T23:50:53.153Z,85.99
2022-10-02T23:53:40.607Z,85.68
2022-10-02T23:56:28.504Z,85.89
2022-10-02T23:59:25.005Z,86.00
